Time;durP1;ratioP1;P1;durP2;ratioP2;P2;SDS_P1;SDS_P2;PMS_P1;PMS_P2;Temp;Humidity;BMP_temperature;BMP_pressure;BME280_temperature;BME280_humidity;BME280_pressure;Samples;Min_cycle;Max_cycle;Signal;HPM_P1;HPM_P2
2023/09/23 00:00:34;;;;;;;0.60;0.60;;;;;;;12.78;100.00;98058.94;4160981;28;20244;-46
2023/09/23 00:02:36;;;;;;;0.63;0.60;;;;;;;12.77;100.00;98064.72;4157112;28;20692;-46
2023/09/23 00:04:37;;;;;;;0.65;0.65;;;;;;;12.63;100.00;98061.69;4160518;28;20818;-46
2023/09/23 00:06:40;;;;;;;0.50;0.50;;;;;;;12.63;100.00;98055.38;4158851;28;20209;-45
2023/09/23 00:08:46;;;;;;;1.25;0.50;;;;;;;12.70;100.00;98064.16;4160240;28;20829;-46
2023/09/23 00:10:51;;;;;;;1.77;0.70;;;;;;;12.61;100.00;98063.88;4159714;28;20298;-46
2023/09/23 00:12:55;;;;;;;0.57;0.57;;;;;;;12.58;100.00;98067.16;4160551;28;20224;-46
2023/09/23 00:14:57;;;;;;;0.47;0.47;;;;;;;12.56;100.00;98058.38;4159112;28;20243;-46
2023/09/23 00:16:58;;;;;;;1.00;1.00;;;;;;;12.62;100.00;98073.75;4157985;28;20533;-45
2023/09/23 00:19:02;;;;;;;0.80;0.80;;;;;;;12.52;100.00;98071.03;4159352;28;20209;-46
2023/09/23 00:21:08;;;;;;;0.60;0.60;;;;;;;12.58;100.00;98069.91;4150896;28;20244;-47
2023/09/23 00:23:09;;;;;;;0.95;0.95;;;;;;;12.46;100.00;98074.88;4161221;28;20603;-46
2023/09/23 00:25:13;;;;;;;0.85;0.85;;;;;;;12.50;100.00;98070.47;4176757;28;20872;-45
2023/09/23 00:27:15;;;;;;;0.70;0.70;;;;;;;12.56;100.00;98080.34;4160076;28;20209;-46
2023/09/23 00:29:17;;;;;;;0.68;0.68;;;;;;;12.60;100.00;98075.97;4159814;28;20209;-45
2023/09/23 00:31:19;;;;;;;0.60;0.60;;;;;;;12.54;100.00;98077.06;4160199;28;20279;-45
2023/09/23 00:33:21;;;;;;;0.70;0.70;;;;;;;12.44;100.00;98082.53;4151986;28;20213;-47
2023/09/23 00:35:23;;;;;;;0.70;0.70;;;;;;;12.43;100.00;98080.88;4155740;28;20225;-47
2023/09/23 00:37:25;;;;;;;1.23;0.90;;;;;;;12.42;100.00;98095.69;4178623;28;20246;-47
2023/09/23 00:39:27;;;;;;;0.65;0.65;;;;;;;12.51;100.00;98088.56;4164407;28;20204;-46
2023/09/23 00:41:29;;;;;;;0.80;0.80;;;;;;;12.51;100.00;98098.75;4146105;28;20573;-45
2023/09/23 00:43:32;;;;;;;0.73;0.73;;;;;;;12.46;100.00;98102.31;4160963;28;20275;-46
2023/09/23 00:45:34;;;;;;;0.68;0.68;;;;;;;12.49;100.00;98096.25;4161112;28;20255;-45
2023/09/23 00:47:36;;;;;;;0.80;0.80;;;;;;;12.52;100.00;98100.38;4158315;28;20207;-46
2023/09/23 00:49:39;;;;;;;0.98;0.98;;;;;;;12.51;100.00;98104.22;4144686;28;20209;-47
2023/09/23 00:51:41;;;;;;;0.70;0.70;;;;;;;12.56;100.00;98107.00;4160598;28;20278;-46
2023/09/23 00:53:44;;;;;;;2.85;0.70;;;;;;;12.69;100.00;98109.16;4144501;28;20224;-48
2023/09/23 00:55:52;;;;;;;0.57;0.57;;;;;;;12.61;100.00;98109.72;4174733;28;20224;-45
2023/09/23 00:57:59;;;;;;;0.88;0.88;;;;;;;12.55;100.00;98113.53;4158976;28;20212;-46
2023/09/23 01:00:03;;;;;;;0.73;0.73;;;;;;;12.56;100.00;98109.72;4147718;28;20670;-46
2023/09/23 01:02:06;;;;;;;0.95;0.60;;;;;;;12.56;100.00;98110.53;4155003;28;20758;-47
2023/09/23 01:04:13;;;;;;;0.80;0.80;;;;;;;12.68;100.00;98113.84;4158431;28;20217;-46
2023/09/23 01:06:21;;;;;;;0.98;0.98;;;;;;;12.66;100.00;98112.47;4159887;28;20205;-46
2023/09/23 01:08:24;;;;;;;0.65;0.65;;;;;;;12.61;100.00;98104.22;4157860;28;20243;-45
2023/09/23 01:10:28;;;;;;;0.70;0.70;;;;;;;12.51;100.00;98094.06;4159381;28;20576;-47
2023/09/23 01:12:30;;;;;;;0.68;0.68;;;;;;;12.58;100.00;98105.59;4166139;28;20232;-47
2023/09/23 01:14:32;;;;;;;0.60;0.60;;;;;;;12.65;100.00;98100.66;4157557;28;20236;-45
2023/09/23 01:16:33;;;;;;;0.70;0.70;;;;;;;12.57;100.00;98106.69;4158313;28;20238;-46
2023/09/23 01:18:35;;;;;;;0.68;0.68;;;;;;;12.48;100.00;98105.59;4159963;28;20260;-46
2023/09/23 01:20:37;;;;;;;0.65;0.65;;;;;;;12.43;100.00;98108.31;4174268;28;20203;-46
2023/09/23 01:22:39;;;;;;;0.65;0.65;;;;;;;12.48;100.00;98110.25;4159515;28;20217;-46
2023/09/23 01:24:41;;;;;;;0.70;0.70;;;;;;;12.43;100.00;98113.81;4140100;28;21029;-47
2023/09/23 01:26:51;;;;;;;0.60;0.60;;;;;;;12.45;100.00;98117.09;4158865;28;20208;-46
2023/09/23 01:28:54;;;;;;;0.50;0.50;;;;;;;12.40;100.00;98108.88;4158533;28;20200;-46
2023/09/23 01:30:57;;;;;;;2.53;0.73;;;;;;;12.47;100.00;98117.66;4157028;28;20607;-45
2023/09/23 01:32:59;;;;;;;0.60;0.60;;;;;;;12.40;100.00;98119.84;4159146;28;20759;-46
2023/09/23 01:35:03;;;;;;;2.85;0.70;;;;;;;12.39;100.00;98123.69;4176197;28;20228;-45
2023/09/23 01:37:05;;;;;;;0.73;0.73;;;;;;;12.34;100.00;98128.31;4171638;28;20665;-48
2023/09/23 01:39:07;;;;;;;0.82;0.82;;;;;;;12.42;100.00;98119.56;4167261;28;20622;-46
2023/09/23 01:41:10;;;;;;;0.60;0.60;;;;;;;12.44;100.00;98120.94;4150141;28;20208;-45
2023/09/23 01:43:12;;;;;;;1.60;1.15;;;;;;;12.44;100.00;98125.63;4150604;28;20724;-46
2023/09/23 01:45:14;;;;;;;1.00;1.00;;;;;;;12.46;100.00;98124.25;4150394;28;20224;-47
2023/09/23 01:47:21;;;;;;;0.65;0.65;;;;;;;12.31;100.00;98118.72;4169964;28;20688;-46
2023/09/23 01:49:23;;;;;;;1.08;1.08;;;;;;;12.32;100.00;98120.38;4151986;28;20295;-47
2023/09/23 01:51:25;;;;;;;0.60;0.60;;;;;;;12.19;100.00;98117.31;4151801;28;20267;-45
2023/09/23 01:53:27;;;;;;;0.70;0.70;;;;;;;12.21;100.00;98120.59;4151238;28;20232;-45
2023/09/23 01:55:30;;;;;;;5.38;1.23;;;;;;;12.21;100.00;98121.44;4167378;28;20224;-47
2023/09/23 01:57:33;;;;;;;0.73;0.73;;;;;;;12.07;100.00;98131.28;4153608;28;20212;-45
2023/09/23 01:59:35;;;;;;;0.60;0.60;;;;;;;12.03;100.00;98135.63;4162683;28;20216;-45
2023/09/23 02:01:40;;;;;;;0.82;0.82;;;;;;;12.06;100.00;98140.59;4153052;28;20704;-46
2023/09/23 02:03:42;;;;;;;0.70;0.70;;;;;;;11.87;100.00;98131.19;4162360;28;20227;-45
2023/09/23 02:05:46;;;;;;;0.65;0.65;;;;;;;11.86;100.00;98134.19;4158995;28;20224;-46
2023/09/23 02:07:50;;;;;;;0.88;0.70;;;;;;;11.83;100.00;98130.06;4155489;28;20213;-47
2023/09/23 02:09:52;;;;;;;0.82;0.82;;;;;;;11.87;100.00;98135.84;4171692;28;20246;-46
2023/09/23 02:11:54;;;;;;;0.70;0.70;;;;;;;11.76;100.00;98134.16;4154495;28;20295;-46
2023/09/23 02:14:01;;;;;;;0.70;0.70;;;;;;;11.82;100.00;98144.88;4173788;28;20224;-46
2023/09/23 02:16:04;;;;;;;1.20;1.20;;;;;;;11.71;100.00;98143.16;4153578;28;20224;-48
2023/09/23 02:18:06;;;;;;;0.70;0.70;;;;;;;11.59;100.00;98141.75;4154527;28;20286;-46
2023/09/23 02:20:18;;;;;;;0.95;0.90;;;;;;;11.58;100.00;98137.34;4154337;28;20252;-46
2023/09/23 02:22:20;;;;;;;3.15;0.90;;;;;;;11.53;100.00;98143.59;4154229;28;20641;-46
2023/09/23 02:24:21;;;;;;;1.45;1.45;;;;;;;11.55;100.00;98146.91;4154809;28;20201;-46
2023/09/23 02:26:24;;;;;;;0.80;0.80;;;;;;;11.61;100.00;98148.59;4152353;28;20217;-46
2023/09/23 02:28:25;;;;;;;0.85;0.70;;;;;;;11.56;100.00;98161.44;4171418;28;20747;-45
2023/09/23 02:30:28;;;;;;;1.38;0.80;;;;;;;11.62;100.00;98161.22;4155040;28;20216;-46
2023/09/23 02:32:30;;;;;;;1.30;0.60;;;;;;;11.48;100.00;98162.75;4160933;28;20235;-46
2023/09/23 02:34:32;;;;;;;0.63;0.63;;;;;;;11.57;100.00;98158.41;4163166;28;20232;-45
2023/09/23 02:36:35;;;;;;;0.43;0.43;;;;;;;11.58;100.00;98160.09;4161501;28;20228;-46
2023/09/23 02:38:37;;;;;;;0.70;0.70;;;;;;;11.53;100.00;98165.53;4160475;28;20220;-45
2023/09/23 02:40:42;;;;;;;1.55;1.10;;;;;;;11.45;100.00;98162.44;4157414;28;20682;-45
2023/09/23 02:42:46;;;;;;;0.60;0.60;;;;;;;11.45;100.00;98170.66;4151861;28;20212;-46
2023/09/23 02:44:48;;;;;;;0.52;0.52;;;;;;;11.56;100.00;98173.19;4153417;28;20967;-47
2023/09/23 02:46:52;;;;;;;0.60;0.60;;;;;;;11.38;100.00;98176.38;4154670;28;20232;-48
2023/09/23 02:48:54;;;;;;;1.98;0.85;;;;;;;11.38;100.00;98179.09;4156071;28;20262;-46
2023/09/23 02:51:00;;;;;;;0.90;0.90;;;;;;;11.51;100.00;98181.38;4154180;28;20216;-46
2023/09/23 02:53:03;;;;;;;0.65;0.65;;;;;;;11.21;100.00;98175.72;4170761;28;20259;-47
2023/09/23 02:55:15;;;;;;;0.70;0.70;;;;;;;11.30;100.00;98174.13;4155415;28;20235;-45
2023/09/23 02:57:17;;;;;;;0.50;0.50;;;;;;;11.21;100.00;98174.88;4171302;28;20199;-46
2023/09/23 02:59:26;;;;;;;0.80;0.60;;;;;;;11.18;100.00;98173.47;4156057;28;20208;-46
2023/09/23 03:01:30;;;;;;;0.93;0.75;;;;;;;11.22;100.00;98180.09;4162990;28;20354;-46
2023/09/23 03:03:38;;;;;;;1.00;1.00;;;;;;;11.19;100.00;98177.88;4176536;28;20204;-45
2023/09/23 03:05:44;;;;;;;0.60;0.60;;;;;;;11.28;100.00;98181.78;4161185;28;20250;-47
2023/09/23 03:07:48;;;;;;;0.60;0.60;;;;;;;11.14;100.00;98179.75;4158894;28;20287;-46
2023/09/23 03:09:55;;;;;;;0.85;0.85;;;;;;;11.35;100.00;98178.81;4159330;28;20279;-46
2023/09/23 03:11:57;;;;;;;0.68;0.68;;;;;;;11.26;100.00;98178.50;4160913;28;20204;-46
2023/09/23 03:13:59;;;;;;;0.88;0.88;;;;;;;11.41;100.00;98175.00;4161039;28;20826;-46
2023/09/23 03:16:08;;;;;;;0.70;0.70;;;;;;;11.48;100.00;98184.66;4160858;28;20260;-46
2023/09/23 03:18:14;;;;;;;0.65;0.65;;;;;;;11.47;100.00;98185.75;4160251;28;20204;-46
2023/09/23 03:20:25;;;;;;;0.95;0.95;;;;;;;11.44;100.00;98189.00;4160015;28;20244;-46
2023/09/23 03:22:27;;;;;;;0.90;0.90;;;;;;;11.26;100.00;98189.44;4160300;28;20239;-45
2023/09/23 03:24:29;;;;;;;0.90;0.90;;;;;;;11.28;100.00;98187.25;4177175;28;20223;-46
2023/09/23 03:26:31;;;;;;;0.80;0.80;;;;;;;11.29;100.00;98188.91;4161006;28;20684;-45
2023/09/23 03:28:34;;;;;;;0.90;0.90;;;;;;;11.29;100.00;98188.91;4159822;28;20200;-46
2023/09/23 03:30:36;;;;;;;0.80;0.80;;;;;;;11.19;100.00;98180.63;4159993;28;20259;-46
2023/09/23 03:32:37;;;;;;;0.70;0.70;;;;;;;11.32;100.00;98188.38;4161317;28;20274;-46
2023/09/23 03:34:39;;;;;;;0.63;0.63;;;;;;;11.28;100.00;98191.91;4159960;28;20243;-46
2023/09/23 03:36:41;;;;;;;1.27;0.95;;;;;;;11.08;100.00;98184.38;4158878;28;20208;-45
2023/09/23 03:38:43;;;;;;;0.68;0.68;;;;;;;10.91;100.00;98189.13;4159686;28;20213;-46
2023/09/23 03:40:54;;;;;;;0.85;0.85;;;;;;;11.03;100.00;98195.25;4159841;28;20618;-46
2023/09/23 03:42:57;;;;;;;1.20;1.10;;;;;;;10.92;100.00;98193.50;4160110;28;20204;-45
2023/09/23 03:44:59;;;;;;;0.50;0.50;;;;;;;10.89;100.00;98191.31;4160090;28;20239;-47
2023/09/23 03:47:01;;;;;;;0.70;0.70;;;;;;;10.82;100.00;98194.53;4160646;28;20200;-46
2023/09/23 03:49:02;;;;;;;0.70;0.70;;;;;;;10.72;100.00;98202.63;4158725;28;20217;-45
2023/09/23 03:51:06;;;;;;;0.90;0.90;;;;;;;10.82;100.00;98209.84;4160596;28;20205;-45
2023/09/23 03:53:10;;;;;;;0.80;0.80;;;;;;;10.81;100.00;98212.03;4159453;28;20715;-46
2023/09/23 03:55:13;;;;;;;0.80;0.80;;;;;;;10.75;100.00;98213.06;4157803;28;20743;-46
2023/09/23 03:57:15;;;;;;;0.80;0.80;;;;;;;10.67;100.00;98221.75;4158907;28;20208;-45
2023/09/23 03:59:16;;;;;;;0.98;0.82;;;;;;;10.83;100.00;98216.97;4161740;28;20208;-45
2023/09/23 04:01:19;;;;;;;0.93;0.93;;;;;;;10.82;100.00;98227.38;4158018;28;20208;-46
2023/09/23 04:03:22;;;;;;;0.70;0.70;;;;;;;10.99;100.00;98229.75;4160233;28;20204;-45
2023/09/23 04:05:25;;;;;;;0.70;0.70;;;;;;;10.95;100.00;98225.88;4159412;28;20229;-46
2023/09/23 04:07:27;;;;;;;1.08;0.88;;;;;;;10.81;100.00;98228.47;4159755;28;20207;-45
2023/09/23 04:09:29;;;;;;;4.43;1.52;;;;;;;10.83;100.00;98225.19;4157261;28;20291;-48
2023/09/23 04:11:31;;;;;;;2.08;0.80;;;;;;;10.77;100.00;98238.25;4168757;28;20704;-45
2023/09/23 04:13:33;;;;;;;0.63;0.63;;;;;;;10.83;100.00;98233.41;4151658;28;20229;-45
2023/09/23 04:15:35;;;;;;;0.68;0.65;;;;;;;10.89;100.00;98243.31;4152962;28;20233;-46
2023/09/23 04:17:40;;;;;;;0.70;0.70;;;;;;;10.98;100.00;98241.75;4139285;28;20571;-47
2023/09/23 04:19:42;;;;;;;0.88;0.88;;;;;;;11.03;100.00;98244.53;4153178;28;22539;-46
2023/09/23 04:21:43;;;;;;;0.85;0.85;;;;;;;11.07;100.00;98237.47;4156132;28;20226;-45
2023/09/23 04:23:45;;;;;;;0.80;0.80;;;;;;;11.10;100.00;98234.22;4175485;28;20204;-46
2023/09/23 04:25:49;;;;;;;0.70;0.70;;;;;;;11.12;100.00;98237.50;4175249;28;20224;-46
2023/09/23 04:27:50;;;;;;;0.70;0.70;;;;;;;11.13;100.00;98241.91;4157761;28;20299;-46
2023/09/23 04:29:54;;;;;;;0.55;0.55;;;;;;;11.17;100.00;98237.56;4156863;28;20213;-46
2023/09/23 04:31:56;;;;;;;0.70;0.70;;;;;;;11.18;100.00;98241.13;4153671;28;20255;-47
2023/09/23 04:33:59;;;;;;;0.50;0.50;;;;;;;11.18;100.00;98247.41;4153729;28;20335;-47
2023/09/23 04:36:01;;;;;;;0.80;0.68;;;;;;;11.14;100.00;98246.31;4151418;28;20561;-46
2023/09/23 04:38:03;;;;;;;0.80;0.80;;;;;;;10.87;100.00;98249.31;4153349;28;20204;-46
2023/09/23 04:40:09;;;;;;;0.80;0.80;;;;;;;10.65;100.00;98262.19;4154839;28;20262;-47
2023/09/23 04:42:11;;;;;;;1.00;1.00;;;;;;;10.64;100.00;98260.56;4154599;28;20274;-48
2023/09/23 04:44:13;;;;;;;1.60;1.05;;;;;;;10.74;100.00;98266.16;4152953;28;20209;-45
2023/09/23 04:46:15;;;;;;;0.75;0.75;;;;;;;10.40;100.00;98259.16;4155287;28;20675;-46
2023/09/23 04:48:18;;;;;;;0.80;0.80;;;;;;;10.30;100.00;98264.53;4152068;28;20291;-46
2023/09/23 04:50:23;;;;;;;1.33;1.33;;;;;;;10.38;100.00;98272.28;4169195;28;20247;-46
2023/09/23 04:52:28;;;;;;;0.75;0.75;;;;;;;10.52;100.00;98273.53;4153129;28;20696;-47
2023/09/23 04:54:29;;;;;;;0.85;0.85;;;;;;;10.41;100.00;98277.25;4169600;28;20750;-47
2023/09/23 04:56:31;;;;;;;0.70;0.70;;;;;;;10.20;100.00;98281.63;4170314;28;20214;-45
2023/09/23 04:58:33;;;;;;;0.82;0.82;;;;;;;10.08;100.00;98269.97;4151089;28;20687;-45
2023/09/23 05:00:36;;;;;;;1.00;1.00;;;;;;;10.10;100.00;98280.66;4151836;28;20219;-45
2023/09/23 05:02:39;;;;;;;5.97;0.82;;;;;;;10.06;100.00;98284.97;4149067;28;20715;-46
2023/09/23 05:04:41;;;;;;;1.20;1.10;;;;;;;10.12;100.00;98283.97;4152106;28;20220;-46
2023/09/23 05:06:42;;;;;;;0.88;0.88;;;;;;;10.10;100.00;98286.13;4167540;28;20287;-45
2023/09/23 05:08:44;;;;;;;1.45;0.90;;;;;;;10.10;100.00;98300.63;4153992;28;20627;-46
2023/09/23 05:10:46;;;;;;;0.77;0.77;;;;;;;10.06;100.00;98291.28;4151845;28;20204;-46
2023/09/23 05:12:48;;;;;;;1.00;1.00;;;;;;;10.06;100.00;98290.44;4154263;28;20331;-46
2023/09/23 05:14:51;;;;;;;0.63;0.63;;;;;;;10.14;100.00;98304.50;4155531;28;20286;-47
2023/09/23 05:16:54;;;;;;;0.82;0.80;;;;;;;10.24;100.00;98309.28;4150473;28;20782;-48
2023/09/23 05:18:56;;;;;;;0.70;0.70;;;;;;;10.33;100.00;98307.75;4168671;28;20743;-46
2023/09/23 05:20:58;;;;;;;0.98;0.90;;;;;;;10.42;100.00;98323.47;4152447;28;21131;-47
2023/09/23 05:23:04;;;;;;;0.60;0.60;;;;;;;10.49;100.00;98328.78;4136229;28;20712;-47
2023/09/23 05:25:07;;;;;;;0.77;0.77;;;;;;;10.36;100.00;98329.16;4168286;28;20318;-47
2023/09/23 05:27:09;;;;;;;0.93;0.93;;;;;;;10.29;100.00;98332.03;4151885;28;20622;-44
2023/09/23 05:29:11;;;;;;;0.77;0.77;;;;;;;10.32;100.00;98334.28;4151118;28;20209;-45
2023/09/23 05:31:16;;;;;;;0.75;0.75;;;;;;;10.35;100.00;98338.44;4151599;28;20796;-46
2023/09/23 05:33:19;;;;;;;0.88;0.82;;;;;;;10.35;100.00;98346.63;4172846;28;20227;-45
2023/09/23 05:35:21;;;;;;;0.60;0.60;;;;;;;10.39;100.00;98347.78;4154713;28;20228;-46
2023/09/23 05:37:22;;;;;;;0.73;0.73;;;;;;;10.40;100.00;98347.53;4169619;28;20195;-45
2023/09/23 05:39:24;;;;;;;1.67;0.90;;;;;;;10.43;100.00;98357.13;4171739;28;20212;-47
2023/09/23 05:41:26;;;;;;;0.93;0.93;;;;;;;10.50;100.00;98355.03;4157590;28;20212;-46
2023/09/23 05:43:28;;;;;;;0.80;0.80;;;;;;;10.52;100.00;98350.97;4158388;28;20268;-46
2023/09/23 05:45:29;;;;;;;1.10;1.05;;;;;;;10.50;100.00;98357.78;4155512;28;20243;-46
2023/09/23 05:47:31;;;;;;;1.23;0.70;;;;;;;10.55;100.00;98355.13;4172225;28;20203;-47
2023/09/23 05:49:33;;;;;;;0.88;0.88;;;;;;;10.59;100.00;98353.50;4159994;28;20303;-46
2023/09/23 05:51:35;;;;;;;0.60;0.60;;;;;;;10.57;100.00;98358.41;4160860;28;20208;-46
2023/09/23 05:53:37;;;;;;;0.70;0.70;;;;;;;10.49;100.00;98358.88;4160466;28;20259;-46
2023/09/23 05:55:38;;;;;;;0.75;0.75;;;;;;;10.48;100.00;98354.47;4159667;28;20736;-47
2023/09/23 05:57:41;;;;;;;1.08;1.08;;;;;;;10.49;100.00;98362.41;4161741;28;20232;-46
2023/09/23 05:59:43;;;;;;;1.10;1.10;;;;;;;10.53;100.00;98362.72;4155505;28;20637;-46
2023/09/23 06:01:46;;;;;;;0.98;0.98;;;;;;;10.57;100.00;98364.72;4161427;28;20212;-46
2023/09/23 06:03:49;;;;;;;1.08;0.90;;;;;;;10.66;100.00;98373.31;4166826;28;20590;-48
2023/09/23 06:05:51;;;;;;;0.82;0.82;;;;;;;10.68;100.00;98376.63;4153519;28;20233;-46
2023/09/23 06:07:53;;;;;;;0.77;0.77;;;;;;;10.72;100.00;98388.72;4155094;28;20209;-46
2023/09/23 06:09:55;;;;;;;0.68;0.68;;;;;;;10.75;100.00;98383.56;4153715;28;20213;-46
2023/09/23 06:11:57;;;;;;;1.17;0.80;;;;;;;10.72;100.00;98391.44;4153078;28;20196;-45
2023/09/23 06:13:59;;;;;;;0.90;0.90;;;;;;;10.78;100.00;98388.53;4161613;28;20204;-47
2023/09/23 06:16:02;;;;;;;0.82;0.82;;;;;;;10.85;100.00;98387.25;4157838;28;20267;-46
2023/09/23 06:18:07;;;;;;;0.90;0.90;;;;;;;10.94;100.00;98402.16;4137051;28;20238;-47
2023/09/23 06:20:10;;;;;;;0.70;0.70;;;;;;;11.07;100.00;98395.47;4152510;28;20208;-48
2023/09/23 06:22:12;;;;;;;0.68;0.68;;;;;;;11.10;100.00;98394.97;4176322;28;20212;-45
2023/09/23 06:24:13;;;;;;;0.68;0.68;;;;;;;11.66;100.00;98409.03;4161295;28;20240;-46
2023/09/23 06:26:16;;;;;;;1.58;1.00;;;;;;;12.10;100.00;98409.69;4160354;28;20216;-47
2023/09/23 06:28:18;;;;;;;0.73;0.73;;;;;;;12.36;100.00;98406.84;4159655;28;20560;-46
2023/09/23 06:30:20;;;;;;;0.70;0.70;;;;;;;12.70;100.00;98413.66;4161080;28;20220;-46
2023/09/23 06:32:21;;;;;;;0.60;0.60;;;;;;;13.22;100.00;98410.88;4161986;28;20212;-46
2023/09/23 06:34:23;;;;;;;1.00;0.60;;;;;;;13.81;100.00;98412.13;4158989;28;20225;-46
2023/09/23 06:36:25;;;;;;;0.60;0.60;;;;;;;13.54;96.64;98417.03;4160043;28;20277;-46
2023/09/23 06:38:28;;;;;;;0.57;0.50;;;;;;;13.78;95.34;98413.50;4161349;28;20584;-47
2023/09/23 06:40:30;;;;;;;0.80;0.80;;;;;;;13.79;92.87;98425.34;4154801;28;20217;-46
2023/09/23 06:42:31;;;;;;;0.60;0.60;;;;;;;13.66;90.08;98434.97;4177057;28;20231;-47
2023/09/23 06:44:33;;;;;;;1.73;0.70;;;;;;;13.24;91.41;98439.75;4160477;28;20285;-46
2023/09/23 06:46:35;;;;;;;0.70;0.70;;;;;;;13.47;93.12;98442.06;4160233;28;20654;-46
2023/09/23 06:48:40;;;;;;;1.00;0.70;;;;;;;13.89;91.12;98441.88;4160221;28;20290;-45
2023/09/23 06:50:41;;;;;;;0.60;0.60;;;;;;;14.20;91.45;98444.41;4157424;28;20644;-46
2023/09/23 06:52:43;;;;;;;0.45;0.45;;;;;;;14.95;88.88;98444.31;4159925;28;20659;-46
2023/09/23 06:54:45;;;;;;;0.70;0.70;;;;;;;14.88;86.76;98446.53;4161403;28;20236;-45
2023/09/23 06:56:47;;;;;;;0.63;0.63;;;;;;;14.36;85.62;98448.81;4160622;28;20670;-48
2023/09/23 06:58:49;;;;;;;0.75;0.60;;;;;;;14.38;86.94;98445.78;4156582;28;20205;-46
2023/09/23 07:00:50;;;;;;;0.50;0.50;;;;;;;14.04;87.87;98450.97;4169405;28;20559;-48
2023/09/23 07:02:55;;;;;;;0.50;0.50;;;;;;;14.54;84.33;98450.16;4154410;28;20239;-47
2023/09/23 07:04:57;;;;;;;0.45;0.45;;;;;;;14.57;84.75;98464.19;4154747;28;20275;-48
2023/09/23 07:06:58;;;;;;;0.75;0.57;;;;;;;14.37;84.23;98461.47;4153513;28;20291;-46
2023/09/23 07:09:00;;;;;;;0.50;0.50;;;;;;;14.28;83.78;98463.13;4153713;28;20589;-46
2023/09/23 07:11:02;;;;;;;0.43;0.43;;;;;;;14.36;83.21;98465.31;4152793;28;20201;-46
2023/09/23 07:13:05;;;;;;;0.50;0.50;;;;;;;14.48;84.80;98468.63;4168401;28;20223;-48
2023/09/23 07:15:07;;;;;;;0.98;0.55;;;;;;;15.25;83.06;98469.03;4152056;28;20241;-47
2023/09/23 07:17:09;;;;;;;0.57;0.50;;;;;;;15.51;80.82;98481.63;4134780;28;20965;-46
2023/09/23 07:19:11;;;;;;;0.50;0.50;;;;;;;15.31;81.46;98478.91;4154293;28;20251;-47
2023/09/23 07:21:13;;;;;;;0.30;0.30;;;;;;;15.71;79.96;98478.75;4152873;28;20209;-46
2023/09/23 07:23:15;;;;;;;1.10;0.52;;;;;;;15.92;79.77;98485.84;4152741;28;20270;-46
2023/09/23 07:25:16;;;;;;;2.08;0.43;;;;;;;16.23;76.81;98487.28;4171493;28;20266;-47
2023/09/23 07:27:18;;;;;;;0.57;0.57;;;;;;;15.39;76.57;98485.81;4152467;28;20205;-47
2023/09/23 07:29:20;;;;;;;0.60;0.60;;;;;;;15.83;79.79;98490.31;4169471;28;20767;-46
2023/09/23 07:31:21;;;;;;;0.40;0.40;;;;;;;16.14;75.57;98489.00;4153614;28;20212;-46
2023/09/23 07:33:23;;;;;;;0.40;0.40;;;;;;;16.74;77.92;98487.72;4154136;28;20224;-46
2023/09/23 07:35:29;;;;;;;0.30;0.30;;;;;;;16.91;73.51;98497.25;4153113;28;20669;-47
2023/09/23 07:37:31;;;;;;;0.52;0.30;;;;;;;16.48;73.08;98505.63;4153330;28;20859;-48
2023/09/23 07:39:33;;;;;;;0.47;0.47;;;;;;;17.21;74.22;98505.25;4170112;28;20218;-46
2023/09/23 07:41:35;;;;;;;1.42;0.50;;;;;;;17.59;70.76;98507.06;4152379;28;20209;-45
2023/09/23 07:43:40;;;;;;;0.55;0.40;;;;;;;16.65;71.43;98517.13;4152889;28;20318;-47
2023/09/23 07:45:42;;;;;;;0.38;0.30;;;;;;;17.04;72.53;98521.44;4151984;28;20236;-46
2023/09/23 07:47:44;;;;;;;1.30;0.50;;;;;;;16.99;70.49;98513.22;4158314;28;20208;-46
2023/09/23 07:49:45;;;;;;;0.47;0.43;;;;;;;16.70;71.57;98514.31;4155579;28;20316;-46
2023/09/23 07:51:48;;;;;;;4.68;0.43;;;;;;;17.69;71.11;98513.28;4170719;28;20200;-46
2023/09/23 07:53:52;;;;;;;0.40;0.40;;;;;;;17.99;70.88;98517.59;4171598;28;21120;-48
2023/09/23 07:55:54;;;;;;;0.28;0.28;;;;;;;18.32;69.73;98517.41;4153438;28;20228;-46
2023/09/23 07:57:56;;;;;;;0.32;0.32;;;;;;;18.31;68.91;98520.50;4147936;28;20208;-47
2023/09/23 07:59:58;;;;;;;0.30;0.30;;;;;;;17.93;68.91;98516.81;4149720;28;20209;-46
2023/09/23 08:02:00;;;;;;;0.30;0.30;;;;;;;18.14;68.20;98525.69;4153619;28;20749;-47
2023/09/23 08:04:02;;;;;;;0.82;0.25;;;;;;;18.02;68.41;98528.06;4152781;28;20208;-46
2023/09/23 08:06:04;;;;;;;0.73;0.45;;;;;;;17.96;69.20;98523.72;4149955;28;21065;-47
2023/09/23 08:08:06;;;;;;;0.30;0.30;;;;;;;17.69;69.61;98523.50;4166240;28;20215;-47
2023/09/23 08:10:09;;;;;;;0.30;0.30;;;;;;;17.36;70.38;98532.72;4171228;28;20204;-47
2023/09/23 08:12:11;;;;;;;0.20;0.20;;;;;;;17.75;70.26;98527.88;4168807;28;20208;-46
2023/09/23 08:14:12;;;;;;;0.30;0.30;;;;;;;17.47;69.78;98526.00;4169216;28;20212;-46
2023/09/23 08:16:14;;;;;;;12.00;0.73;;;;;;;17.26;68.36;98541.97;4153272;28;20271;-46
2023/09/23 08:18:16;;;;;;;0.40;0.40;;;;;;;17.94;70.94;98540.66;4167259;28;20368;-45
2023/09/23 08:20:20;;;;;;;0.20;0.20;;;;;;;17.79;71.08;98540.81;4150061;28;20240;-48
2023/09/23 08:22:21;;;;;;;0.43;0.30;;;;;;;18.15;68.40;98543.97;4165974;28;21238;-46
2023/09/23 08:24:23;;;;;;;0.40;0.40;;;;;;;18.19;67.46;98545.03;4150872;28;20225;-46
2023/09/23 08:26:25;;;;;;;8.15;0.57;;;;;;;17.72;68.42;98551.44;4150340;28;21649;-45
2023/09/23 08:28:27;;;;;;;0.40;0.40;;;;;;;17.62;70.07;98551.56;4154718;28;20204;-45
2023/09/23 08:30:29;;;;;;;0.88;0.50;;;;;;;17.91;68.50;98565.34;4160245;28;20217;-45
2023/09/23 08:32:31;;;;;;;0.22;0.22;;;;;;;18.12;69.48;98563.97;4174105;28;20227;-47
2023/09/23 08:34:33;;;;;;;0.30;0.30;;;;;;;18.12;68.78;98561.19;4173838;28;20232;-46
2023/09/23 08:36:38;;;;;;;0.90;0.40;;;;;;;17.64;67.37;98548.50;4157136;28;20287;-44
2023/09/23 08:38:41;;;;;;;0.47;0.47;;;;;;;17.57;68.30;98559.09;4165765;28;20334;-47
2023/09/23 08:40:44;;;;;;;0.50;0.50;;;;;;;17.54;68.63;98565.22;4149790;28;20232;-46
2023/09/23 08:42:50;;;;;;;0.32;0.32;;;;;;;17.70;68.71;98563.91;4168809;28;20211;-46
2023/09/23 08:44:52;;;;;;;0.40;0.40;;;;;;;17.80;69.04;98561.03;4148849;28;20354;-46
2023/09/23 08:46:54;;;;;;;0.52;0.40;;;;;;;17.50;70.54;98553.06;4136379;28;20666;-45
2023/09/23 08:49:00;;;;;;;0.35;0.35;;;;;;;17.76;68.75;98546.13;4150866;28;20748;-46
2023/09/23 08:51:03;;;;;;;0.40;0.40;;;;;;;18.00;70.27;98552.47;4164018;28;20283;-46
2023/09/23 08:53:06;;;;;;;0.45;0.40;;;;;;;17.77;68.37;98558.84;4152447;28;20200;-46
2023/09/23 08:55:09;;;;;;;1.55;0.65;;;;;;;17.76;69.20;98554.44;4149015;28;20343;-46
2023/09/23 08:57:11;;;;;;;0.52;0.52;;;;;;;17.66;68.10;98560.09;4135042;28;20212;-46
2023/09/23 08:59:14;;;;;;;0.28;0.28;;;;;;;18.03;69.07;98565.72;4149841;28;20216;-45
2023/09/23 09:01:17;;;;;;;0.38;0.38;;;;;;;18.01;67.93;98567.97;4150890;28;20792;-47
2023/09/23 09:03:19;;;;;;;1.08;0.85;;;;;;;18.07;69.42;98572.31;4149613;28;20358;-46
2023/09/23 09:05:21;;;;;;;0.60;0.60;;;;;;;18.11;67.88;98570.63;4165232;28;20224;-47
2023/09/23 09:07:24;;;;;;;1.48;0.50;;;;;;;18.07;69.97;98575.09;4170458;28;21021;-47
2023/09/23 09:09:26;;;;;;;0.52;0.43;;;;;;;18.52;67.83;98574.50;4159134;28;20213;-46
2023/09/23 09:11:28;;;;;;;0.32;0.32;;;;;;;18.07;68.43;98575.09;4155543;28;20240;-45
2023/09/23 09:13:31;;;;;;;4.38;1.67;;;;;;;18.79;66.84;98577.41;4141700;28;20213;-46
2023/09/23 09:15:36;;;;;;;1.75;0.50;;;;;;;18.98;66.26;98575.44;4172124;28;20285;-46
2023/09/23 09:17:38;;;;;;;1.15;0.50;;;;;;;19.41;66.51;98574.97;4156287;28;20312;-46
2023/09/23 09:19:40;;;;;;;1.52;0.40;;;;;;;19.51;64.16;98574.78;4171417;28;20308;-46
2023/09/23 09:21:42;;;;;;;0.30;0.30;;;;;;;19.43;64.64;98582.97;4151736;28;20220;-46
2023/09/23 09:23:44;;;;;;;0.30;0.30;;;;;;;19.74;63.56;98576.56;4150381;28;20247;-46
2023/09/23 09:25:47;;;;;;;0.50;0.50;;;;;;;20.14;62.50;98584.09;4150421;28;20227;-46
2023/09/23 09:27:51;;;;;;;0.35;0.35;;;;;;;18.57;63.84;98580.78;4165741;28;20235;-46
2023/09/23 09:29:54;;;;;;;5.32;0.77;;;;;;;18.86;64.21;98586.16;4165163;28;20281;-47
2023/09/23 09:32:11;;;;;;;0.75;0.75;;;;;;;19.48;63.74;98580.09;4151734;28;20287;-48